sensor_id;sensor_type;location;lat;lon;timestamp;temperature;humidity
18624;DHT22;9441;51.420;7.036;2022-09-20T00:00:01;11.20;99.90
18624;DHT22;9441;51.420;7.036;2022-09-20T00:01:07;11.20;99.90
18624;DHT22;9441;51.420;7.036;2022-09-20T00:02:08;11.20;99.90
18624;DHT22;9441;51.420;7.036;2022-09-20T00:03:11;11.20;99.90
18624;DHT22;9441;51.420;7.036;2022-09-20T00:04:12;11.20;99.90
18624;DHT22;9441;51.420;7.036;2022-09-20T00:05:14;11.20;99.90
18624;DHT22;9441;51.420;7.036;2022-09-20T00:06:17;11.20;99.90
18624;DHT22;9441;51.420;7.036;2022-09-20T00:07:20;11.30;99.90
18624;DHT22;9441;51.420;7.036;2022-09-20T00:08:21;11.30;99.90
18624;DHT22;9441;51.420;7.036;2022-09-20T00:09:23;11.30;99.90
18624;DHT22;9441;51.420;7.036;2022-09-20T00:10:24;11.30;99.90
18624;DHT22;9441;51.420;7.036;2022-09-20T00:11:29;11.30;99.90
18624;DHT22;9441;51.420;7.036;2022-09-20T00:12:30;11.30;99.90
18624;DHT22;9441;51.420;7.036;2022-09-20T00:13:35;11.30;99.90
18624;DHT22;9441;51.420;7.036;2022-09-20T00:14:36;11.30;99.90
18624;DHT22;9441;51.420;7.036;2022-09-20T00:15:43;11.30;99.90
18624;DHT22;9441;51.420;7.036;2022-09-20T00:16:44;11.30;99.90
18624;DHT22;9441;51.420;7.036;2022-09-20T00:17:46;11.30;99.90
18624;DHT22;9441;51.420;7.036;2022-09-20T00:18:47;11.30;99.90
18624;DHT22;9441;51.420;7.036;2022-09-20T00:19:50;11.30;99.90
18624;DHT22;9441;51.420;7.036;2022-09-20T00:20:52;11.30;99.90
18624;DHT22;9441;51.420;7.036;2022-09-20T00:21:54;11.30;99.90
18624;DHT22;9441;51.420;7.036;2022-09-20T00:22:56;11.40;99.90
18624;DHT22;9441;51.420;7.036;2022-09-20T00:23:57;11.30;99.90
18624;DHT22;9441;51.420;7.036;2022-09-20T00:24:59;11.40;99.90
18624;DHT22;9441;51.420;7.036;2022-09-20T00:26:02;11.30;99.90
18624;DHT22;9441;51.420;7.036;2022-09-20T00:27:04;11.30;99.90
18624;DHT22;9441;51.420;7.036;2022-09-20T00:28:05;11.30;99.90
18624;DHT22;9441;51.420;7.036;2022-09-20T00:29:09;11.30;99.90
18624;DHT22;9441;51.420;7.036;2022-09-20T00:30:12;11.30;99.90
18624;DHT22;9441;51.420;7.036;2022-09-20T00:31:14;11.30;99.90
18624;DHT22;9441;51.420;7.036;2022-09-20T00:32:16;11.30;99.90
18624;DHT22;9441;51.420;7.036;2022-09-20T00:33:17;11.30;99.90
18624;DHT22;9441;51.420;7.036;2022-09-20T00:34:19;11.30;99.90
18624;DHT22;9441;51.420;7.036;2022-09-20T00:35:41;11.30;99.90
18624;DHT22;9441;51.420;7.036;2022-09-20T00:36:43;11.20;99.90
18624;DHT22;9441;51.420;7.036;2022-09-20T00:37:45;11.20;99.90
18624;DHT22;9441;51.420;7.036;2022-09-20T00:38:47;11.20;99.90
18624;DHT22;9441;51.420;7.036;2022-09-20T00:39:49;11.20;99.90
18624;DHT22;9441;51.420;7.036;2022-09-20T00:40:49;11.20;99.90
18624;DHT22;9441;51.420;7.036;2022-09-20T00:41:51;11.20;99.90
18624;DHT22;9441;51.420;7.036;2022-09-20T00:42:52;11.10;99.90
18624;DHT22;9441;51.420;7.036;2022-09-20T00:43:55;11.20;99.90
18624;DHT22;9441;51.420;7.036;2022-09-20T00:44:58;11.20;99.90
18624;DHT22;9441;51.420;7.036;2022-09-20T00:46:02;11.10;99.90
18624;DHT22;9441;51.420;7.036;2022-09-20T00:47:04;11.10;99.90
18624;DHT22;9441;51.420;7.036;2022-09-20T00:48:11;11.10;99.90
18624;DHT22;9441;51.420;7.036;2022-09-20T00:49:17;11.10;99.90
18624;DHT22;9441;51.420;7.036;2022-09-20T00:50:26;11.00;99.90
18624;DHT22;9441;51.420;7.036;2022-09-20T00:51:31;11.10;99.90
18624;DHT22;9441;51.420;7.036;2022-09-20T00:52:35;11.00;99.90
18624;DHT22;9441;51.420;7.036;2022-09-20T00:53:39;11.00;99.90
18624;DHT22;9441;51.420;7.036;2022-09-20T00:54:42;11.00;99.90
18624;DHT22;9441;51.420;7.036;2022-09-20T00:55:47;11.00;99.90
18624;DHT22;9441;51.420;7.036;2022-09-20T00:56:50;10.90;99.90
18624;DHT22;9441;51.420;7.036;2022-09-20T00:57:53;10.90;99.90
18624;DHT22;9441;51.420;7.036;2022-09-20T00:58:58;10.90;99.90
18624;DHT22;9441;51.420;7.036;2022-09-20T01:00:06;10.90;99.90
18624;DHT22;9441;51.420;7.036;2022-09-20T01:01:09;10.90;99.90
18624;DHT22;9441;51.420;7.036;2022-09-20T01:02:14;10.90;99.90
18624;DHT22;9441;51.420;7.036;2022-09-20T01:03:19;10.90;99.90
18624;DHT22;9441;51.420;7.036;2022-09-20T01:04:24;11.00;99.90
18624;DHT22;9441;51.420;7.036;2022-09-20T01:05:28;10.90;99.90
18624;DHT22;9441;51.420;7.036;2022-09-20T01:06:29;10.80;99.90
18624;DHT22;9441;51.420;7.036;2022-09-20T01:07:32;10.80;99.90
18624;DHT22;9441;51.420;7.036;2022-09-20T01:08:34;10.80;99.90
18624;DHT22;9441;51.420;7.036;2022-09-20T01:09:36;10.80;99.90
18624;DHT22;9441;51.420;7.036;2022-09-20T01:10:38;10.80;99.90
18624;DHT22;9441;51.420;7.036;2022-09-20T01:11:40;10.80;99.90
18624;DHT22;9441;51.420;7.036;2022-09-20T01:12:42;10.80;99.90
18624;DHT22;9441;51.420;7.036;2022-09-20T01:13:45;10.80;99.90
18624;DHT22;9441;51.420;7.036;2022-09-20T01:14:48;10.80;99.90
18624;DHT22;9441;51.420;7.036;2022-09-20T01:15:52;10.80;99.90
18624;DHT22;9441;51.420;7.036;2022-09-20T01:16:56;10.80;99.90
18624;DHT22;9441;51.420;7.036;2022-09-20T01:18:00;10.80;99.90
18624;DHT22;9441;51.420;7.036;2022-09-20T01:19:07;10.80;99.90
18624;DHT22;9441;51.420;7.036;2022-09-20T01:20:15;10.80;99.90
18624;DHT22;9441;51.420;7.036;2022-09-20T01:21:19;10.80;99.90
18624;DHT22;9441;51.420;7.036;2022-09-20T01:22:24;10.80;99.90
18624;DHT22;9441;51.420;7.036;2022-09-20T01:23:38;10.80;99.90
18624;DHT22;9441;51.420;7.036;2022-09-20T01:24:46;10.80;99.90
18624;DHT22;9441;51.420;7.036;2022-09-20T01:26:05;10.80;99.90
18624;DHT22;9441;51.420;7.036;2022-09-20T01:27:16;10.80;99.90
18624;DHT22;9441;51.420;7.036;2022-09-20T01:28:23;10.80;99.90
18624;DHT22;9441;51.420;7.036;2022-09-20T01:29:39;10.80;99.90
18624;DHT22;9441;51.420;7.036;2022-09-20T01:30:48;10.80;99.90
18624;DHT22;9441;51.420;7.036;2022-09-20T01:31:54;10.80;99.90
18624;DHT22;9441;51.420;7.036;2022-09-20T01:33:05;10.80;99.90
18624;DHT22;9441;51.420;7.036;2022-09-20T01:34:11;10.80;99.90
18624;DHT22;9441;51.420;7.036;2022-09-20T01:35:15;10.70;99.90
18624;DHT22;9441;51.420;7.036;2022-09-20T01:36:23;10.70;99.90
18624;DHT22;9441;51.420;7.036;2022-09-20T01:37:28;10.80;99.90
18624;DHT22;9441;51.420;7.036;2022-09-20T01:38:36;10.80;99.90
18624;DHT22;9441;51.420;7.036;2022-09-20T01:39:45;10.70;99.90
18624;DHT22;9441;51.420;7.036;2022-09-20T01:40:58;10.70;99.90
18624;DHT22;9441;51.420;7.036;2022-09-20T01:42:05;10.70;99.90
18624;DHT22;9441;51.420;7.036;2022-09-20T01:43:13;10.70;99.90
18624;DHT22;9441;51.420;7.036;2022-09-20T01:44:24;10.70;99.90
18624;DHT22;9441;51.420;7.036;2022-09-20T01:45:31;10.70;99.90
18624;DHT22;9441;51.420;7.036;2022-09-20T01:46:35;10.70;99.90
18624;DHT22;9441;51.420;7.036;2022-09-20T01:47:40;10.70;99.90
18624;DHT22;9441;51.420;7.036;2022-09-20T01:48:48;10.70;99.90
18624;DHT22;9441;51.420;7.036;2022-09-20T01:49:54;10.80;99.90
18624;DHT22;9441;51.420;7.036;2022-09-20T01:51:10;10.80;99.90
18624;DHT22;9441;51.420;7.036;2022-09-20T01:52:46;10.80;99.90
18624;DHT22;9441;51.420;7.036;2022-09-20T01:54:17;10.70;99.90
18624;DHT22;9441;51.420;7.036;2022-09-20T01:55:56;10.70;99.90
18624;DHT22;9441;51.420;7.036;2022-09-20T02:00:25;10.70;99.90
18624;DHT22;9441;51.420;7.036;2022-09-20T02:02:00;10.70;99.90
18624;DHT22;9441;51.420;7.036;2022-09-20T02:03:29;10.70;99.90
18624;DHT22;9441;51.420;7.036;2022-09-20T02:05:03;10.80;99.90
18624;DHT22;9441;51.420;7.036;2022-09-20T02:06:31;10.80;99.90
18624;DHT22;9441;51.420;7.036;2022-09-20T02:09:29;10.80;99.90
18624;DHT22;9441;51.420;7.036;2022-09-20T02:10:51;10.90;99.90
18624;DHT22;9441;51.420;7.036;2022-09-20T02:12:15;10.90;99.90
18624;DHT22;9441;51.420;7.036;2022-09-20T02:13:27;11.00;99.90
18624;DHT22;9441;51.420;7.036;2022-09-20T02:14:35;11.00;99.90
18624;DHT22;9441;51.420;7.036;2022-09-20T02:16:04;11.00;99.90
18624;DHT22;9441;51.420;7.036;2022-09-20T02:17:13;11.00;99.90
18624;DHT22;9441;51.420;7.036;2022-09-20T02:18:28;10.90;99.90
18624;DHT22;9441;51.420;7.036;2022-09-20T02:19:53;11.00;99.90
18624;DHT22;9441;51.420;7.036;2022-09-20T02:21:03;10.90;99.90
18624;DHT22;9441;51.420;7.036;2022-09-20T02:22:21;10.90;99.90
18624;DHT22;9441;51.420;7.036;2022-09-20T02:23:40;11.00;99.90
18624;DHT22;9441;51.420;7.036;2022-09-20T02:24:54;11.00;99.90
18624;DHT22;9441;51.420;7.036;2022-09-20T02:26:08;11.00;99.90
18624;DHT22;9441;51.420;7.036;2022-09-20T02:27:20;11.10;99.90
18624;DHT22;9441;51.420;7.036;2022-09-20T02:28:32;11.10;99.90
18624;DHT22;9441;51.420;7.036;2022-09-20T02:29:44;11.10;99.90
18624;DHT22;9441;51.420;7.036;2022-09-20T02:30:54;11.10;99.90
18624;DHT22;9441;51.420;7.036;2022-09-20T02:32:18;11.10;99.90
18624;DHT22;9441;51.420;7.036;2022-09-20T02:35:09;11.10;99.90
18624;DHT22;9441;51.420;7.036;2022-09-20T02:36:29;11.10;99.90
18624;DHT22;9441;51.420;7.036;2022-09-20T02:37:54;11.10;99.90
18624;DHT22;9441;51.420;7.036;2022-09-20T02:39:02;11.20;99.90
18624;DHT22;9441;51.420;7.036;2022-09-20T02:40:23;11.20;99.90
18624;DHT22;9441;51.420;7.036;2022-09-20T02:41:50;11.20;99.90
18624;DHT22;9441;51.420;7.036;2022-09-20T02:43:00;11.10;99.90
18624;DHT22;9441;51.420;7.036;2022-09-20T02:44:11;11.20;99.90
18624;DHT22;9441;51.420;7.036;2022-09-20T02:45:21;11.20;99.90
18624;DHT22;9441;51.420;7.036;2022-09-20T02:46:30;11.20;99.90
18624;DHT22;9441;51.420;7.036;2022-09-20T02:47:36;11.30;99.90
18624;DHT22;9441;51.420;7.036;2022-09-20T02:48:46;11.30;99.90
18624;DHT22;9441;51.420;7.036;2022-09-20T02:50:17;11.30;99.90
18624;DHT22;9441;51.420;7.036;2022-09-20T02:51:27;11.30;99.90
18624;DHT22;9441;51.420;7.036;2022-09-20T02:52:36;11.30;99.90
18624;DHT22;9441;51.420;7.036;2022-09-20T02:53:46;11.30;99.90
18624;DHT22;9441;51.420;7.036;2022-09-20T02:54:56;11.30;99.90
18624;DHT22;9441;51.420;7.036;2022-09-20T02:56:04;11.30;99.90
18624;DHT22;9441;51.420;7.036;2022-09-20T02:57:14;11.30;99.90
18624;DHT22;9441;51.420;7.036;2022-09-20T02:58:26;11.40;99.90
18624;DHT22;9441;51.420;7.036;2022-09-20T02:59:37;11.40;99.90
18624;DHT22;9441;51.420;7.036;2022-09-20T03:00:44;11.40;99.90
18624;DHT22;9441;51.420;7.036;2022-09-20T03:01:59;11.40;99.90
18624;DHT22;9441;51.420;7.036;2022-09-20T03:03:07;11.40;99.90
18624;DHT22;9441;51.420;7.036;2022-09-20T03:04:20;11.30;99.90
18624;DHT22;9441;51.420;7.036;2022-09-20T03:05:26;11.30;99.90
18624;DHT22;9441;51.420;7.036;2022-09-20T03:06:37;11.30;99.90
18624;DHT22;9441;51.420;7.036;2022-09-20T03:07:50;11.30;99.90
18624;DHT22;9441;51.420;7.036;2022-09-20T03:09:00;11.30;99.90
18624;DHT22;9441;51.420;7.036;2022-09-20T03:10:11;11.30;99.90
18624;DHT22;9441;51.420;7.036;2022-09-20T03:11:21;11.30;99.90
18624;DHT22;9441;51.420;7.036;2022-09-20T03:12:32;11.30;99.90
18624;DHT22;9441;51.420;7.036;2022-09-20T03:14:00;11.30;99.90
18624;DHT22;9441;51.420;7.036;2022-09-20T03:15:15;11.40;99.90
18624;DHT22;9441;51.420;7.036;2022-09-20T03:16:30;11.40;99.90
18624;DHT22;9441;51.420;7.036;2022-09-20T03:17:42;11.40;99.90
18624;DHT22;9441;51.420;7.036;2022-09-20T03:18:53;11.40;99.90
18624;DHT22;9441;51.420;7.036;2022-09-20T03:20:07;11.30;99.90
18624;DHT22;9441;51.420;7.036;2022-09-20T03:21:25;11.30;99.90
18624;DHT22;9441;51.420;7.036;2022-09-20T03:22:38;11.30;99.90
18624;DHT22;9441;51.420;7.036;2022-09-20T03:23:53;11.20;99.90
18624;DHT22;9441;51.420;7.036;2022-09-20T03:25:33;11.20;99.90
18624;DHT22;9441;51.420;7.036;2022-09-20T03:26:45;11.30;99.90
18624;DHT22;9441;51.420;7.036;2022-09-20T03:28:02;11.30;99.90
18624;DHT22;9441;51.420;7.036;2022-09-20T03:29:12;11.30;99.90
18624;DHT22;9441;51.420;7.036;2022-09-20T03:30:26;11.30;99.90
18624;DHT22;9441;51.420;7.036;2022-09-20T03:31:43;11.30;99.90
18624;DHT22;9441;51.420;7.036;2022-09-20T03:32:57;11.30;99.90
18624;DHT22;9441;51.420;7.036;2022-09-20T03:34:10;11.30;99.90
18624;DHT22;9441;51.420;7.036;2022-09-20T03:35:26;11.20;99.90
18624;DHT22;9441;51.420;7.036;2022-09-20T03:38:10;11.40;99.90
18624;DHT22;9441;51.420;7.036;2022-09-20T03:39:30;11.30;99.90
18624;DHT22;9441;51.420;7.036;2022-09-20T03:40:56;11.30;99.90
18624;DHT22;9441;51.420;7.036;2022-09-20T03:42:12;11.30;99.90
18624;DHT22;9441;51.420;7.036;2022-09-20T03:43:24;11.30;99.90
18624;DHT22;9441;51.420;7.036;2022-09-20T03:46:02;11.30;99.90
18624;DHT22;9441;51.420;7.036;2022-09-20T03:47:18;11.30;99.90
18624;DHT22;9441;51.420;7.036;2022-09-20T03:49:26;11.30;99.90
18624;DHT22;9441;51.420;7.036;2022-09-20T03:50:36;11.30;99.90
18624;DHT22;9441;51.420;7.036;2022-09-20T03:51:44;11.30;99.90
18624;DHT22;9441;51.420;7.036;2022-09-20T03:53:00;11.40;99.90
18624;DHT22;9441;51.420;7.036;2022-09-20T03:54:33;11.40;99.90
18624;DHT22;9441;51.420;7.036;2022-09-20T03:56:05;11.40;99.90
18624;DHT22;9441;51.420;7.036;2022-09-20T03:57:25;11.40;99.90
18624;DHT22;9441;51.420;7.036;2022-09-20T03:58:54;11.40;99.90
18624;DHT22;9441;51.420;7.036;2022-09-20T04:00:07;11.30;99.90
18624;DHT22;9441;51.420;7.036;2022-09-20T04:01:31;11.40;99.90
18624;DHT22;9441;51.420;7.036;2022-09-20T04:02:46;11.50;99.90
18624;DHT22;9441;51.420;7.036;2022-09-20T04:04:02;11.50;99.90
18624;DHT22;9441;51.420;7.036;2022-09-20T04:05:08;11.50;99.90
18624;DHT22;9441;51.420;7.036;2022-09-20T04:06:29;11.60;99.90
18624;DHT22;9441;51.420;7.036;2022-09-20T04:07:43;11.60;99.90
18624;DHT22;9441;51.420;7.036;2022-09-20T04:09:30;11.60;99.90
18624;DHT22;9441;51.420;7.036;2022-09-20T04:10:42;11.60;99.90
18624;DHT22;9441;51.420;7.036;2022-09-20T04:11:49;11.70;99.90
18624;DHT22;9441;51.420;7.036;2022-09-20T04:13:03;11.70;99.90
18624;DHT22;9441;51.420;7.036;2022-09-20T04:14:15;11.70;99.90
18624;DHT22;9441;51.420;7.036;2022-09-20T04:15:28;11.70;99.90
18624;DHT22;9441;51.420;7.036;2022-09-20T04:16:38;11.70;99.90
18624;DHT22;9441;51.420;7.036;2022-09-20T04:17:46;11.70;99.90
18624;DHT22;9441;51.420;7.036;2022-09-20T04:18:52;11.80;99.90
18624;DHT22;9441;51.420;7.036;2022-09-20T04:20:02;11.80;99.90
18624;DHT22;9441;51.420;7.036;2022-09-20T04:21:11;11.80;99.90
18624;DHT22;9441;51.420;7.036;2022-09-20T04:22:15;11.70;99.90
18624;DHT22;9441;51.420;7.036;2022-09-20T04:23:29;11.70;99.90
18624;DHT22;9441;51.420;7.036;2022-09-20T04:24:36;11.70;99.90
18624;DHT22;9441;51.420;7.036;2022-09-20T04:25:45;11.70;99.90
18624;DHT22;9441;51.420;7.036;2022-09-20T04:26:50;11.70;99.90
18624;DHT22;9441;51.420;7.036;2022-09-20T04:27:55;11.70;99.90
18624;DHT22;9441;51.420;7.036;2022-09-20T04:29:21;11.80;99.90
18624;DHT22;9441;51.420;7.036;2022-09-20T04:30:26;11.80;99.90
18624;DHT22;9441;51.420;7.036;2022-09-20T04:31:35;11.80;99.90
18624;DHT22;9441;51.420;7.036;2022-09-20T04:32:45;11.80;99.90
18624;DHT22;9441;51.420;7.036;2022-09-20T04:33:50;11.80;99.90
18624;DHT22;9441;51.420;7.036;2022-09-20T04:35:01;11.80;99.90
18624;DHT22;9441;51.420;7.036;2022-09-20T04:36:35;11.80;99.90
18624;DHT22;9441;51.420;7.036;2022-09-20T04:37:38;11.80;99.90
18624;DHT22;9441;51.420;7.036;2022-09-20T04:38:41;11.90;99.90
18624;DHT22;9441;51.420;7.036;2022-09-20T04:39:47;11.90;99.90
18624;DHT22;9441;51.420;7.036;2022-09-20T04:41:06;11.90;99.90
18624;DHT22;9441;51.420;7.036;2022-09-20T04:43:00;11.90;99.90
18624;DHT22;9441;51.420;7.036;2022-09-20T04:44:21;11.90;99.90
18624;DHT22;9441;51.420;7.036;2022-09-20T04:52:08;12.10;99.90
18624;DHT22;9441;51.420;7.036;2022-09-20T04:53:34;12.10;99.90
18624;DHT22;9441;51.420;7.036;2022-09-20T04:54:58;12.10;99.90
18624;DHT22;9441;51.420;7.036;2022-09-20T04:56:18;12.10;99.90
18624;DHT22;9441;51.420;7.036;2022-09-20T04:58:00;12.10;99.90
18624;DHT22;9441;51.420;7.036;2022-09-20T04:59:06;12.10;99.90
18624;DHT22;9441;51.420;7.036;2022-09-20T05:00:11;12.10;99.90
18624;DHT22;9441;51.420;7.036;2022-09-20T05:01:57;12.10;99.90
18624;DHT22;9441;51.420;7.036;2022-09-20T05:03:43;12.10;99.90
18624;DHT22;9441;51.420;7.036;2022-09-20T05:05:17;12.20;99.90
18624;DHT22;9441;51.420;7.036;2022-09-20T05:06:44;12.10;99.90
18624;DHT22;9441;51.420;7.036;2022-09-20T05:09:38;12.10;99.90
18624;DHT22;9441;51.420;7.036;2022-09-20T05:11:08;12.20;99.90
18624;DHT22;9441;51.420;7.036;2022-09-20T05:12:31;12.20;99.90
18624;DHT22;9441;51.420;7.036;2022-09-20T05:13:49;12.20;99.90
18624;DHT22;9441;51.420;7.036;2022-09-20T05:15:07;12.20;99.90
18624;DHT22;9441;51.420;7.036;2022-09-20T05:16:18;12.20;99.90
18624;DHT22;9441;51.420;7.036;2022-09-20T05:17:34;12.20;99.90
18624;DHT22;9441;51.420;7.036;2022-09-20T05:18:54;12.20;99.90
18624;DHT22;9441;51.420;7.036;2022-09-20T05:20:18;12.20;99.90
18624;DHT22;9441;51.420;7.036;2022-09-20T05:21:48;12.20;99.90
18624;DHT22;9441;51.420;7.036;2022-09-20T05:23:07;12.20;99.90
18624;DHT22;9441;51.420;7.036;2022-09-20T05:24:22;12.20;99.90
18624;DHT22;9441;51.420;7.036;2022-09-20T05:25:52;12.30;99.90
18624;DHT22;9441;51.420;7.036;2022-09-20T05:27:07;12.30;99.90
18624;DHT22;9441;51.420;7.036;2022-09-20T05:28:20;12.30;99.90
18624;DHT22;9441;51.420;7.036;2022-09-20T05:29:27;12.40;99.90
18624;DHT22;9441;51.420;7.036;2022-09-20T05:30:33;12.40;99.90
18624;DHT22;9441;51.420;7.036;2022-09-20T05:31:42;12.30;99.90
18624;DHT22;9441;51.420;7.036;2022-09-20T05:32:53;12.30;99.90
18624;DHT22;9441;51.420;7.036;2022-09-20T05:34:07;12.30;99.90
18624;DHT22;9441;51.420;7.036;2022-09-20T05:35:16;12.30;99.90
18624;DHT22;9441;51.420;7.036;2022-09-20T05:36:28;12.30;99.90
18624;DHT22;9441;51.420;7.036;2022-09-20T05:37:38;12.30;99.90
18624;DHT22;9441;51.420;7.036;2022-09-20T05:38:47;12.30;99.90
18624;DHT22;9441;51.420;7.036;2022-09-20T05:39:53;12.40;99.90
18624;DHT22;9441;51.420;7.036;2022-09-20T05:41:12;12.30;99.90
18624;DHT22;9441;51.420;7.036;2022-09-20T05:42:21;12.30;99.90
18624;DHT22;9441;51.420;7.036;2022-09-20T05:43:30;12.30;99.90
18624;DHT22;9441;51.420;7.036;2022-09-20T05:44:47;12.30;99.90
18624;DHT22;9441;51.420;7.036;2022-09-20T05:46:02;12.30;99.90
18624;DHT22;9441;51.420;7.036;2022-09-20T05:47:14;12.30;99.90
18624;DHT22;9441;51.420;7.036;2022-09-20T05:48:23;12.30;99.90
18624;DHT22;9441;51.420;7.036;2022-09-20T05:49:37;12.40;99.90
18624;DHT22;9441;51.420;7.036;2022-09-20T05:50:46;12.50;99.90
18624;DHT22;9441;51.420;7.036;2022-09-20T05:52:01;12.50;99.90
18624;DHT22;9441;51.420;7.036;2022-09-20T05:53:45;12.50;99.90
18624;DHT22;9441;51.420;7.036;2022-09-20T05:55:13;12.50;99.90
18624;DHT22;9441;51.420;7.036;2022-09-20T05:56:25;12.60;99.90
18624;DHT22;9441;51.420;7.036;2022-09-20T05:57:38;12.50;99.90
18624;DHT22;9441;51.420;7.036;2022-09-20T05:58:52;12.50;99.90
18624;DHT22;9441;51.420;7.036;2022-09-20T06:00:00;12.60;99.90
18624;DHT22;9441;51.420;7.036;2022-09-20T06:01:17;12.50;99.90
18624;DHT22;9441;51.420;7.036;2022-09-20T06:02:30;12.50;99.90
18624;DHT22;9441;51.420;7.036;2022-09-20T06:03:38;12.60;99.90
18624;DHT22;9441;51.420;7.036;2022-09-20T06:04:49;12.60;99.90
18624;DHT22;9441;51.420;7.036;2022-09-20T06:05:57;12.60;99.90
18624;DHT22;9441;51.420;7.036;2022-09-20T06:07:06;12.60;99.90
18624;DHT22;9441;51.420;7.036;2022-09-20T06:10:21;12.70;99.90
18624;DHT22;9441;51.420;7.036;2022-09-20T06:11:56;12.60;99.90
18624;DHT22;9441;51.420;7.036;2022-09-20T06:13:10;12.60;99.90
18624;DHT22;9441;51.420;7.036;2022-09-20T06:14:23;12.60;99.90
18624;DHT22;9441;51.420;7.036;2022-09-20T06:15:35;12.70;99.90
18624;DHT22;9441;51.420;7.036;2022-09-20T06:16:42;12.70;99.90
18624;DHT22;9441;51.420;7.036;2022-09-20T06:17:52;12.70;99.90
18624;DHT22;9441;51.420;7.036;2022-09-20T06:19:05;12.70;99.90
18624;DHT22;9441;51.420;7.036;2022-09-20T06:20:17;12.70;99.90
18624;DHT22;9441;51.420;7.036;2022-09-20T06:21:28;12.70;99.90
18624;DHT22;9441;51.420;7.036;2022-09-20T06:22:33;12.70;99.90
18624;DHT22;9441;51.420;7.036;2022-09-20T06:23:38;12.70;99.90
18624;DHT22;9441;51.420;7.036;2022-09-20T06:24:43;12.70;99.90
18624;DHT22;9441;51.420;7.036;2022-09-20T06:25:49;12.80;99.90
18624;DHT22;9441;51.420;7.036;2022-09-20T06:26:56;12.80;99.90
18624;DHT22;9441;51.420;7.036;2022-09-20T06:28:03;12.80;99.90
18624;DHT22;9441;51.420;7.036;2022-09-20T06:29:11;12.90;99.90
18624;DHT22;9441;51.420;7.036;2022-09-20T06:30:16;12.90;99.90
18624;DHT22;9441;51.420;7.036;2022-09-20T06:31:19;12.80;99.90
18624;DHT22;9441;51.420;7.036;2022-09-20T06:32:21;12.70;99.90
18624;DHT22;9441;51.420;7.036;2022-09-20T06:33:23;12.70;99.90
18624;DHT22;9441;51.420;7.036;2022-09-20T06:34:27;12.70;99.90
18624;DHT22;9441;51.420;7.036;2022-09-20T06:35:34;12.80;99.90
18624;DHT22;9441;51.420;7.036;2022-09-20T06:36:39;12.80;99.90
18624;DHT22;9441;51.420;7.036;2022-09-20T06:38:17;12.90;99.90
18624;DHT22;9441;51.420;7.036;2022-09-20T06:39:43;12.90;99.90
18624;DHT22;9441;51.420;7.036;2022-09-20T06:41:08;12.90;99.90
18624;DHT22;9441;51.420;7.036;2022-09-20T06:42:31;12.90;99.90
18624;DHT22;9441;51.420;7.036;2022-09-20T06:43:34;13.00;99.90
18624;DHT22;9441;51.420;7.036;2022-09-20T06:44:38;13.00;99.90
18624;DHT22;9441;51.420;7.036;2022-09-20T06:45:43;13.00;99.90
18624;DHT22;9441;51.420;7.036;2022-09-20T06:46:44;13.10;99.90
18624;DHT22;9441;51.420;7.036;2022-09-20T06:47:46;13.10;99.90
18624;DHT22;9441;51.420;7.036;2022-09-20T06:48:47;13.10;99.90
18624;DHT22;9441;51.420;7.036;2022-09-20T06:49:50;13.10;99.90
18624;DHT22;9441;51.420;7.036;2022-09-20T06:50:51;13.20;99.90
18624;DHT22;9441;51.420;7.036;2022-09-20T06:51:53;13.20;99.90
18624;DHT22;9441;51.420;7.036;2022-09-20T06:52:55;13.20;99.90
18624;DHT22;9441;51.420;7.036;2022-09-20T06:53:56;13.10;99.90
18624;DHT22;9441;51.420;7.036;2022-09-20T06:54:58;13.00;99.90
18624;DHT22;9441;51.420;7.036;2022-09-20T06:56:00;12.90;99.90
18624;DHT22;9441;51.420;7.036;2022-09-20T06:57:04;13.00;99.90
18624;DHT22;9441;51.420;7.036;2022-09-20T06:58:08;13.00;99.90
18624;DHT22;9441;51.420;7.036;2022-09-20T06:59:09;13.00;99.90
18624;DHT22;9441;51.420;7.036;2022-09-20T07:00:13;13.00;99.90
18624;DHT22;9441;51.420;7.036;2022-09-20T07:01:15;12.90;99.90
18624;DHT22;9441;51.420;7.036;2022-09-20T07:02:17;12.90;99.90
18624;DHT22;9441;51.420;7.036;2022-09-20T07:03:19;12.90;99.90
18624;DHT22;9441;51.420;7.036;2022-09-20T07:04:20;12.90;99.90
18624;DHT22;9441;51.420;7.036;2022-09-20T07:05:23;12.60;99.90
18624;DHT22;9441;51.420;7.036;2022-09-20T07:06:26;12.70;99.90
18624;DHT22;9441;51.420;7.036;2022-09-20T07:07:28;12.70;99.90
18624;DHT22;9441;51.420;7.036;2022-09-20T07:08:29;12.70;99.90
18624;DHT22;9441;51.420;7.036;2022-09-20T07:09:32;12.70;99.90
18624;DHT22;9441;51.420;7.036;2022-09-20T07:10:34;12.60;99.90
18624;DHT22;9441;51.420;7.036;2022-09-20T07:11:35;12.60;99.90
18624;DHT22;9441;51.420;7.036;2022-09-20T07:12:37;12.60;99.90
18624;DHT22;9441;51.420;7.036;2022-09-20T07:13:40;12.60;99.90
18624;DHT22;9441;51.420;7.036;2022-09-20T07:14:42;12.60;99.90
18624;DHT22;9441;51.420;7.036;2022-09-20T07:15:44;12.60;99.90
18624;DHT22;9441;51.420;7.036;2022-09-20T07:16:46;12.60;99.90
18624;DHT22;9441;51.420;7.036;2022-09-20T07:17:47;12.60;99.90
18624;DHT22;9441;51.420;7.036;2022-09-20T07:18:50;12.60;99.90
18624;DHT22;9441;51.420;7.036;2022-09-20T07:19:52;12.80;99.90
18624;DHT22;9441;51.420;7.036;2022-09-20T07:20:54;12.80;99.90
18624;DHT22;9441;51.420;7.036;2022-09-20T07:21:58;12.70;99.90
18624;DHT22;9441;51.420;7.036;2022-09-20T07:23:00;12.70;99.90
18624;DHT22;9441;51.420;7.036;2022-09-20T07:24:03;12.80;99.90
18624;DHT22;9441;51.420;7.036;2022-09-20T07:25:04;12.80;99.90
18624;DHT22;9441;51.420;7.036;2022-09-20T07:26:16;12.80;99.90
18624;DHT22;9441;51.420;7.036;2022-09-20T07:27:19;12.90;99.90
18624;DHT22;9441;51.420;7.036;2022-09-20T07:28:21;12.90;99.90
18624;DHT22;9441;51.420;7.036;2022-09-20T07:29:23;12.80;99.90
18624;DHT22;9441;51.420;7.036;2022-09-20T07:30:26;12.80;99.90
18624;DHT22;9441;51.420;7.036;2022-09-20T07:31:28;12.90;99.90
18624;DHT22;9441;51.420;7.036;2022-09-20T07:32:30;12.90;99.90
18624;DHT22;9441;51.420;7.036;2022-09-20T07:33:31;12.80;99.90
18624;DHT22;9441;51.420;7.036;2022-09-20T07:34:33;12.80;99.90
18624;DHT22;9441;51.420;7.036;2022-09-20T07:35:34;12.80;99.90
18624;DHT22;9441;51.420;7.036;2022-09-20T07:36:37;12.80;99.90
18624;DHT22;9441;51.420;7.036;2022-09-20T07:37:38;12.80;99.90
18624;DHT22;9441;51.420;7.036;2022-09-20T07:38:41;12.80;99.90
18624;DHT22;9441;51.420;7.036;2022-09-20T07:39:42;12.80;99.90
18624;DHT22;9441;51.420;7.036;2022-09-20T07:40:45;12.80;99.90
18624;DHT22;9441;51.420;7.036;2022-09-20T07:41:54;12.90;99.90
18624;DHT22;9441;51.420;7.036;2022-09-20T07:42:55;12.90;99.90
18624;DHT22;9441;51.420;7.036;2022-09-20T07:43:57;13.00;99.90
18624;DHT22;9441;51.420;7.036;2022-09-20T07:45:20;12.90;99.90
18624;DHT22;9441;51.420;7.036;2022-09-20T07:46:23;13.10;99.90
18624;DHT22;9441;51.420;7.036;2022-09-20T07:47:24;12.90;99.90
18624;DHT22;9441;51.420;7.036;2022-09-20T07:48:30;13.00;99.90
18624;DHT22;9441;51.420;7.036;2022-09-20T07:49:32;13.10;99.90
18624;DHT22;9441;51.420;7.036;2022-09-20T07:50:33;13.10;99.90
18624;DHT22;9441;51.420;7.036;2022-09-20T07:51:35;13.00;99.90